Metar z połowy godziny Komunikat METAR ze strony awiacja.imgw.pl Metar G30 EPKK METAR EPKK 190230Z 27004KT 9999 FEW051 18/12 Q1020 =